sensor_id;sensor_type;location;lat;lon;timestamp;pressure;altitude;pressure_sealevel;temperature;humidity
59106;BME280;44891;50.204;8.132;2023-01-26T00:00:26;98850.69;;;-1.08;100.00
59106;BME280;44891;50.204;8.132;2023-01-26T00:04:28;98849.50;;;-1.14;100.00
59106;BME280;44891;50.204;8.132;2023-01-26T00:08:30;98850.31;;;-1.14;100.00
59106;BME280;44891;50.204;8.132;2023-01-26T00:12:31;98839.78;;;-1.20;100.00
59106;BME280;44891;50.204;8.132;2023-01-26T00:16:35;98831.91;;;-1.19;100.00
59106;BME280;44891;50.204;8.132;2023-01-26T00:20:37;98839.69;;;-1.46;100.00
59106;BME280;44891;50.204;8.132;2023-01-26T00:24:39;98831.97;;;-1.28;100.00
59106;BME280;44891;50.204;8.132;2023-01-26T00:28:41;98834.50;;;-1.19;100.00
59106;BME280;44891;50.204;8.132;2023-01-26T00:32:44;98823.81;;;-1.24;100.00
59106;BME280;44891;50.204;8.132;2023-01-26T00:36:46;98829.13;;;-1.25;100.00
59106;BME280;44891;50.204;8.132;2023-01-26T00:40:48;98828.66;;;-1.21;100.00
59106;BME280;44891;50.204;8.132;2023-01-26T00:44:50;98820.88;;;-1.29;100.00
59106;BME280;44891;50.204;8.132;2023-01-26T00:48:53;98823.00;;;-1.24;100.00
59106;BME280;44891;50.204;8.132;2023-01-26T00:52:56;98818.56;;;-1.14;100.00
59106;BME280;44891;50.204;8.132;2023-01-26T00:56:58;98816.59;;;-1.20;100.00
59106;BME280;44891;50.204;8.132;2023-01-26T01:01:00;98812.91;;;-1.18;100.00
59106;BME280;44891;50.204;8.132;2023-01-26T01:05:03;98807.88;;;-1.19;100.00
59106;BME280;44891;50.204;8.132;2023-01-26T01:09:05;98810.88;;;-1.32;100.00
59106;BME280;44891;50.204;8.132;2023-01-26T01:13:07;98794.13;;;-1.28;100.00
59106;BME280;44891;50.204;8.132;2023-01-26T01:17:09;98801.06;;;-1.46;100.00
59106;BME280;44891;50.204;8.132;2023-01-26T01:21:14;98805.78;;;-1.42;100.00
59106;BME280;44891;50.204;8.132;2023-01-26T01:25:16;98808.56;;;-1.35;100.00
59106;BME280;44891;50.204;8.132;2023-01-26T01:29:18;98802.19;;;-1.31;100.00
59106;BME280;44891;50.204;8.132;2023-01-26T01:33:21;98796.22;;;-1.31;100.00
59106;BME280;44891;50.204;8.132;2023-01-26T01:37:24;98797.75;;;-1.39;100.00
59106;BME280;44891;50.204;8.132;2023-01-26T01:41:26;98797.59;;;-1.37;100.00
59106;BME280;44891;50.204;8.132;2023-01-26T01:45:41;98793.31;;;-1.46;100.00
59106;BME280;44891;50.204;8.132;2023-01-26T01:49:43;98795.69;;;-1.53;100.00
59106;BME280;44891;50.204;8.132;2023-01-26T01:53:49;98798.69;;;-1.40;100.00
59106;BME280;44891;50.204;8.132;2023-01-26T01:57:52;98796.66;;;-1.36;100.00
59106;BME280;44891;50.204;8.132;2023-01-26T02:01:55;98795.63;;;-1.25;100.00
59106;BME280;44891;50.204;8.132;2023-01-26T02:05:59;98792.38;;;-1.27;100.00
59106;BME280;44891;50.204;8.132;2023-01-26T02:10:03;98783.53;;;-1.25;100.00
59106;BME280;44891;50.204;8.132;2023-01-26T02:14:26;98782.97;;;-1.37;100.00
59106;BME280;44891;50.204;8.132;2023-01-26T02:18:29;98779.50;;;-1.45;100.00
59106;BME280;44891;50.204;8.132;2023-01-26T02:22:35;98761.31;;;-1.44;100.00
59106;BME280;44891;50.204;8.132;2023-01-26T02:26:42;98765.28;;;-1.49;100.00
59106;BME280;44891;50.204;8.132;2023-01-26T02:30:44;98756.34;;;-1.45;100.00
59106;BME280;44891;50.204;8.132;2023-01-26T02:34:46;98761.47;;;-1.45;100.00
59106;BME280;44891;50.204;8.132;2023-01-26T02:38:50;98760.00;;;-1.30;100.00
59106;BME280;44891;50.204;8.132;2023-01-26T02:42:56;98752.63;;;-1.43;100.00
59106;BME280;44891;50.204;8.132;2023-01-26T02:46:58;98744.75;;;-1.41;100.00
59106;BME280;44891;50.204;8.132;2023-01-26T02:51:00;98742.38;;;-1.34;100.00
59106;BME280;44891;50.204;8.132;2023-01-26T02:55:02;98741.00;;;-1.47;100.00
59106;BME280;44891;50.204;8.132;2023-01-26T02:59:24;98729.59;;;-1.44;100.00
59106;BME280;44891;50.204;8.132;2023-01-26T03:03:27;98734.28;;;-1.40;100.00
59106;BME280;44891;50.204;8.132;2023-01-26T03:07:41;98718.41;;;-1.35;100.00
59106;BME280;44891;50.204;8.132;2023-01-26T03:11:43;98717.00;;;-1.29;100.00
59106;BME280;44891;50.204;8.132;2023-01-26T03:15:47;98707.25;;;-1.18;100.00
59106;BME280;44891;50.204;8.132;2023-01-26T03:19:52;98710.88;;;-1.28;100.00
59106;BME280;44891;50.204;8.132;2023-01-26T03:24:12;98717.09;;;-1.13;100.00
59106;BME280;44891;50.204;8.132;2023-01-26T03:28:33;98714.03;;;-1.17;100.00
59106;BME280;44891;50.204;8.132;2023-01-26T03:32:36;98714.69;;;-1.15;100.00
59106;BME280;44891;50.204;8.132;2023-01-26T03:36:41;98701.50;;;-1.12;100.00
59106;BME280;44891;50.204;8.132;2023-01-26T03:40:47;98707.25;;;-1.18;100.00
59106;BME280;44891;50.204;8.132;2023-01-26T03:45:07;98699.13;;;-1.31;100.00
59106;BME280;44891;50.204;8.132;2023-01-26T03:49:28;98692.84;;;-1.28;100.00
59106;BME280;44891;50.204;8.132;2023-01-26T03:53:47;98699.13;;;-1.31;100.00
59106;BME280;44891;50.204;8.132;2023-01-26T03:58:08;98695.56;;;-1.30;100.00
59106;BME280;44891;50.204;8.132;2023-01-26T04:02:11;98695.53;;;-1.38;100.00
59106;BME280;44891;50.204;8.132;2023-01-26T04:06:32;98688.41;;;-1.44;100.00
59106;BME280;44891;50.204;8.132;2023-01-26T04:10:51;98690.00;;;-1.43;100.00
59106;BME280;44891;50.204;8.132;2023-01-26T04:14:54;98681.91;;;-1.48;100.00
59106;BME280;44891;50.204;8.132;2023-01-26T04:19:14;98678.44;;;-1.39;99.34
59106;BME280;44891;50.204;8.132;2023-01-26T04:23:34;98683.69;;;-1.49;99.96
59106;BME280;44891;50.204;8.132;2023-01-26T04:27:36;98684.13;;;-1.53;100.00
59106;BME280;44891;50.204;8.132;2023-01-26T04:31:39;98683.44;;;-1.38;98.75
59106;BME280;44891;50.204;8.132;2023-01-26T04:35:41;98675.97;;;-1.49;97.49
59106;BME280;44891;50.204;8.132;2023-01-26T04:39:45;98671.25;;;-1.53;99.30
59106;BME280;44891;50.204;8.132;2023-01-26T04:43:47;98674.78;;;-1.54;99.56
59106;BME280;44891;50.204;8.132;2023-01-26T04:47:49;98678.09;;;-1.62;98.20
59106;BME280;44891;50.204;8.132;2023-01-26T04:51:51;98679.13;;;-1.73;99.65
59106;BME280;44891;50.204;8.132;2023-01-26T04:55:55;98671.63;;;-1.66;99.98
59106;BME280;44891;50.204;8.132;2023-01-26T04:59:57;98666.09;;;-1.53;98.22
59106;BME280;44891;50.204;8.132;2023-01-26T05:03:59;98668.34;;;-1.58;98.29
59106;BME280;44891;50.204;8.132;2023-01-26T05:08:03;98663.19;;;-1.58;99.07
59106;BME280;44891;50.204;8.132;2023-01-26T05:12:08;98670.16;;;-1.69;100.00
59106;BME280;44891;50.204;8.132;2023-01-26T05:16:48;98668.25;;;-1.67;100.00
59106;BME280;44891;50.204;8.132;2023-01-26T05:20:58;98662.97;;;-1.65;100.00
59106;BME280;44891;50.204;8.132;2023-01-26T05:25:02;98676.66;;;-1.65;100.00
59106;BME280;44891;50.204;8.132;2023-01-26T05:29:12;98675.16;;;-1.49;100.00
59106;BME280;44891;50.204;8.132;2023-01-26T05:33:14;98674.72;;;-1.62;100.00
59106;BME280;44891;50.204;8.132;2023-01-26T05:37:22;98668.78;;;-1.81;100.00
59106;BME280;44891;50.204;8.132;2023-01-26T05:41:24;98672.31;;;-1.82;100.00
59106;BME280;44891;50.204;8.132;2023-01-26T05:46:00;98674.44;;;-1.95;100.00
59106;BME280;44891;50.204;8.132;2023-01-26T05:50:02;98674.88;;;-1.82;100.00
59106;BME280;44891;50.204;8.132;2023-01-26T05:54:05;98664.88;;;-1.85;100.00
59106;BME280;44891;50.204;8.132;2023-01-26T05:58:08;98668.50;;;-1.78;100.00
59106;BME280;44891;50.204;8.132;2023-01-26T06:02:11;98671.78;;;-1.85;99.57
59106;BME280;44891;50.204;8.132;2023-01-26T06:06:17;98670.75;;;-1.75;99.04
59106;BME280;44891;50.204;8.132;2023-01-26T06:10:26;98669.56;;;-1.62;98.28
59106;BME280;44891;50.204;8.132;2023-01-26T06:14:49;98666.56;;;-1.76;98.63
59106;BME280;44891;50.204;8.132;2023-01-26T06:18:52;98659.94;;;-1.78;99.40
59106;BME280;44891;50.204;8.132;2023-01-26T06:22:57;98663.25;;;-1.86;99.69
59106;BME280;44891;50.204;8.132;2023-01-26T06:27:01;98662.44;;;-1.86;99.15
59106;BME280;44891;50.204;8.132;2023-01-26T06:31:03;98668.28;;;-1.84;99.61
59106;BME280;44891;50.204;8.132;2023-01-26T06:35:07;98672.00;;;-1.79;99.55
59106;BME280;44891;50.204;8.132;2023-01-26T06:39:10;98677.75;;;-1.67;99.84
59106;BME280;44891;50.204;8.132;2023-01-26T06:43:12;98673.56;;;-1.86;100.00
59106;BME280;44891;50.204;8.132;2023-01-26T06:47:16;98680.03;;;-1.82;99.81
59106;BME280;44891;50.204;8.132;2023-01-26T06:51:38;98685.78;;;-1.88;100.00
59106;BME280;44891;50.204;8.132;2023-01-26T06:55:42;98681.22;;;-1.94;100.00
59106;BME280;44891;50.204;8.132;2023-01-26T07:00:00;98685.25;;;-1.74;100.00
59106;BME280;44891;50.204;8.132;2023-01-26T07:04:09;98701.53;;;-1.91;100.00
59106;BME280;44891;50.204;8.132;2023-01-26T07:08:12;98702.63;;;-1.76;100.00
59106;BME280;44891;50.204;8.132;2023-01-26T07:12:14;98709.00;;;-1.80;99.48
59106;BME280;44891;50.204;8.132;2023-01-26T07:16:16;98710.94;;;-1.82;99.47
59106;BME280;44891;50.204;8.132;2023-01-26T07:20:18;98706.44;;;-1.80;99.67
59106;BME280;44891;50.204;8.132;2023-01-26T07:24:21;98716.81;;;-1.89;99.27
59106;BME280;44891;50.204;8.132;2023-01-26T07:28:23;98720.78;;;-1.95;100.00
59106;BME280;44891;50.204;8.132;2023-01-26T07:32:25;98724.84;;;-2.20;100.00
59106;BME280;44891;50.204;8.132;2023-01-26T07:36:27;98730.06;;;-2.12;100.00
59106;BME280;44891;50.204;8.132;2023-01-26T07:40:31;98728.63;;;-2.14;100.00
59106;BME280;44891;50.204;8.132;2023-01-26T07:44:33;98731.41;;;-2.08;100.00
59106;BME280;44891;50.204;8.132;2023-01-26T07:48:35;98739.44;;;-2.11;100.00
59106;BME280;44891;50.204;8.132;2023-01-26T07:52:37;98738.97;;;-2.06;99.43
59106;BME280;44891;50.204;8.132;2023-01-26T07:56:40;98738.72;;;-2.03;99.34
59106;BME280;44891;50.204;8.132;2023-01-26T08:00:43;98743.78;;;-1.94;99.04
59106;BME280;44891;50.204;8.132;2023-01-26T08:04:47;98749.25;;;-1.97;99.36
59106;BME280;44891;50.204;8.132;2023-01-26T08:08:51;98746.22;;;-1.92;99.14
59106;BME280;44891;50.204;8.132;2023-01-26T08:12:55;98750.53;;;-1.93;98.85
59106;BME280;44891;50.204;8.132;2023-01-26T08:16:57;98745.50;;;-1.84;98.53
59106;BME280;44891;50.204;8.132;2023-01-26T08:20:59;98747.47;;;-1.78;98.50
59106;BME280;44891;50.204;8.132;2023-01-26T08:25:01;98756.66;;;-1.94;97.74
59106;BME280;44891;50.204;8.132;2023-01-26T08:29:04;98744.00;;;-1.87;97.40
59106;BME280;44891;50.204;8.132;2023-01-26T08:33:06;98740.94;;;-1.73;96.84
59106;BME280;44891;50.204;8.132;2023-01-26T08:37:08;98750.41;;;-1.73;95.50
59106;BME280;44891;50.204;8.132;2023-01-26T08:41:10;98746.91;;;-1.90;96.01
59106;BME280;44891;50.204;8.132;2023-01-26T08:45:14;98754.69;;;-1.82;96.22
59106;BME280;44891;50.204;8.132;2023-01-26T08:49:15;98743.81;;;-1.76;95.30
59106;BME280;44891;50.204;8.132;2023-01-26T08:53:17;98745.00;;;-1.70;94.90
59106;BME280;44891;50.204;8.132;2023-01-26T08:57:19;98748.44;;;-1.79;95.14
59106;BME280;44891;50.204;8.132;2023-01-26T09:01:22;98744.84;;;-1.69;94.91
59106;BME280;44891;50.204;8.132;2023-01-26T09:05:24;98741.78;;;-2.00;95.24
59106;BME280;44891;50.204;8.132;2023-01-26T09:09:26;98746.50;;;-1.95;96.36
59106;BME280;44891;50.204;8.132;2023-01-26T09:13:28;98751.09;;;-1.89;95.90
59106;BME280;44891;50.204;8.132;2023-01-26T09:17:31;98754.38;;;-1.79;94.24
59106;BME280;44891;50.204;8.132;2023-01-26T09:21:33;98757.06;;;-1.98;95.54
59106;BME280;44891;50.204;8.132;2023-01-26T09:25:35;98751.66;;;-1.95;94.88
59106;BME280;44891;50.204;8.132;2023-01-26T09:29:37;98753.03;;;-2.01;93.98
59106;BME280;44891;50.204;8.132;2023-01-26T09:33:41;98753.84;;;-2.00;92.83
59106;BME280;44891;50.204;8.132;2023-01-26T09:37:42;98760.63;;;-1.99;92.49
59106;BME280;44891;50.204;8.132;2023-01-26T09:41:48;98745.34;;;-1.83;91.26
59106;BME280;44891;50.204;8.132;2023-01-26T09:45:53;98748.44;;;-1.79;90.42
59106;BME280;44891;50.204;8.132;2023-01-26T09:50:03;98756.22;;;-1.53;88.55
59106;BME280;44891;50.204;8.132;2023-01-26T09:54:10;98756.31;;;-1.63;87.89
59106;BME280;44891;50.204;8.132;2023-01-26T09:58:16;98756.22;;;-1.53;88.65
59106;BME280;44891;50.204;8.132;2023-01-26T10:02:23;98755.59;;;-1.55;89.33
59106;BME280;44891;50.204;8.132;2023-01-26T10:06:31;98763.22;;;-1.28;88.91
59106;BME280;44891;50.204;8.132;2023-01-26T10:10:53;98756.59;;;-1.30;87.60
59106;BME280;44891;50.204;8.132;2023-01-26T10:14:57;98757.47;;;-1.40;88.47
59106;BME280;44891;50.204;8.132;2023-01-26T10:19:03;98759.13;;;-1.39;88.84
59106;BME280;44891;50.204;8.132;2023-01-26T10:23:10;98750.56;;;-1.39;89.20
59106;BME280;44891;50.204;8.132;2023-01-26T10:27:12;98742.13;;;-1.31;89.21
59106;BME280;44891;50.204;8.132;2023-01-26T10:31:15;98744.53;;;-1.30;89.58
59106;BME280;44891;50.204;8.132;2023-01-26T10:35:18;98739.75;;;-1.25;89.12
59106;BME280;44891;50.204;8.132;2023-01-26T10:39:21;98743.56;;;-1.29;89.37
59106;BME280;44891;50.204;8.132;2023-01-26T10:43:23;98680.16;;;-1.66;89.07
59106;BME280;44891;50.204;8.132;2023-01-26T10:47:25;98734.50;;;-1.33;90.70
59106;BME280;44891;50.204;8.132;2023-01-26T10:51:28;98736.63;;;-1.11;90.41
59106;BME280;44891;50.204;8.132;2023-01-26T10:55:32;98730.75;;;-1.21;90.84
59106;BME280;44891;50.204;8.132;2023-01-26T10:59:36;98725.75;;;-1.22;90.64
59106;BME280;44891;50.204;8.132;2023-01-26T11:03:39;98721.56;;;-1.41;93.06
59106;BME280;44891;50.204;8.132;2023-01-26T11:07:42;98715.81;;;-1.35;92.83
59106;BME280;44891;50.204;8.132;2023-01-26T11:11:54;98703.81;;;-1.26;92.54
59106;BME280;44891;50.204;8.132;2023-01-26T11:16:00;98703.59;;;-1.33;92.65
59106;BME280;44891;50.204;8.132;2023-01-26T11:20:11;98696.06;;;-1.26;93.54
59106;BME280;44891;50.204;8.132;2023-01-26T11:24:17;98697.59;;;-1.16;93.32
59106;BME280;44891;50.204;8.132;2023-01-26T11:28:29;98693.91;;;-1.13;92.66
59106;BME280;44891;50.204;8.132;2023-01-26T11:32:35;98696.19;;;-1.10;93.30
59106;BME280;44891;50.204;8.132;2023-01-26T11:36:44;98677.84;;;-1.07;93.00
59106;BME280;44891;50.204;8.132;2023-01-26T11:40:49;98681.50;;;-1.18;93.70
59106;BME280;44891;50.204;8.132;2023-01-26T11:44:59;98687.53;;;-1.01;93.68
59106;BME280;44891;50.204;8.132;2023-01-26T11:49:09;98682.56;;;-0.94;93.15
59106;BME280;44891;50.204;8.132;2023-01-26T11:53:24;98666.72;;;-1.07;94.25
59106;BME280;44891;50.204;8.132;2023-01-26T11:57:31;98658.63;;;-1.13;94.73
59106;BME280;44891;50.204;8.132;2023-01-26T12:01:38;98659.66;;;-1.05;94.12
59106;BME280;44891;50.204;8.132;2023-01-26T12:05:42;98660.84;;;-0.92;94.04
59106;BME280;44891;50.204;8.132;2023-01-26T12:09:45;98659.78;;;-1.07;95.18
59106;BME280;44891;50.204;8.132;2023-01-26T12:13:49;98648.63;;;-0.90;95.11
59106;BME280;44891;50.204;8.132;2023-01-26T12:17:58;98637.53;;;-0.74;94.25
59106;BME280;44891;50.204;8.132;2023-01-26T12:22:02;98642.38;;;-0.79;94.65
59106;BME280;44891;50.204;8.132;2023-01-26T12:26:06;98632.72;;;-0.77;94.11
59106;BME280;44891;50.204;8.132;2023-01-26T12:30:18;98629.16;;;-0.76;94.88
59106;BME280;44891;50.204;8.132;2023-01-26T12:34:25;98616.81;;;-0.64;93.81
59106;BME280;44891;50.204;8.132;2023-01-26T12:38:30;98617.78;;;-0.57;93.94
59106;BME280;44891;50.204;8.132;2023-01-26T12:42:38;98619.84;;;-0.69;93.01
59106;BME280;44891;50.204;8.132;2023-01-26T12:46:42;98616.66;;;-0.63;93.17
59106;BME280;44891;50.204;8.132;2023-01-26T12:50:47;98614.41;;;-0.49;94.20
59106;BME280;44891;50.204;8.132;2023-01-26T12:54:53;98595.53;;;-0.58;93.35
59106;BME280;44891;50.204;8.132;2023-01-26T12:58:57;98601.06;;;-0.45;92.92
59106;BME280;44891;50.204;8.132;2023-01-26T13:03:02;98601.97;;;-0.62;94.12
59106;BME280;44891;50.204;8.132;2023-01-26T13:20:24;98598.63;;;-0.46;95.38
59106;BME280;44891;50.204;8.132;2023-01-26T13:24:42;98583.47;;;-0.58;95.54
59106;BME280;44891;50.204;8.132;2023-01-26T13:28:44;98586.84;;;-0.49;95.97
59106;BME280;44891;50.204;8.132;2023-01-26T13:32:50;98594.41;;;-0.56;96.94
59106;BME280;44891;50.204;8.132;2023-01-26T13:36:54;98592.19;;;-0.42;96.94
59106;BME280;44891;50.204;8.132;2023-01-26T13:40:56;98588.97;;;-0.44;97.06
59106;BME280;44891;50.204;8.132;2023-01-26T13:45:00;98585.41;;;-0.51;97.78
59106;BME280;44891;50.204;8.132;2023-01-26T13:49:03;98590.88;;;-0.55;98.14
59106;BME280;44891;50.204;8.132;2023-01-26T13:57:23;98604.38;;;-0.69;100.00
59106;BME280;44891;50.204;8.132;2023-01-26T14:01:26;98600.84;;;-0.60;99.62
59106;BME280;44891;50.204;8.132;2023-01-26T14:05:27;98600.66;;;-0.66;99.92
59106;BME280;44891;50.204;8.132;2023-01-26T14:09:31;98605.34;;;-0.62;100.00
59106;BME280;44891;50.204;8.132;2023-01-26T14:13:36;98615.72;;;-0.45;99.98
59106;BME280;44891;50.204;8.132;2023-01-26T14:17:45;98620.72;;;-0.44;99.24
59106;BME280;44891;50.204;8.132;2023-01-26T14:21:49;98626.38;;;-0.40;98.83
59106;BME280;44891;50.204;8.132;2023-01-26T14:25:55;98626.69;;;-0.51;99.46
59106;BME280;44891;50.204;8.132;2023-01-26T14:29:59;98624.28;;;-0.45;99.64
59106;BME280;44891;50.204;8.132;2023-01-26T14:34:02;98626.06;;;-0.29;99.06
59106;BME280;44891;50.204;8.132;2023-01-26T14:38:11;98628.81;;;-0.39;99.19
59106;BME280;44891;50.204;8.132;2023-01-26T14:42:14;98622.19;;;-0.33;99.31
59106;BME280;44891;50.204;8.132;2023-01-26T14:46:20;98634.47;;;-0.27;99.13
59106;BME280;44891;50.204;8.132;2023-01-26T14:50:24;98631.88;;;-0.27;99.14
59106;BME280;44891;50.204;8.132;2023-01-26T14:54:28;98631.91;;;-0.19;99.56
59106;BME280;44891;50.204;8.132;2023-01-26T14:58:31;98620.78;;;-0.19;99.86
59106;BME280;44891;50.204;8.132;2023-01-26T15:02:36;98622.53;;;-0.20;100.00
59106;BME280;44891;50.204;8.132;2023-01-26T15:06:38;98627.72;;;-0.04;100.00
59106;BME280;44891;50.204;8.132;2023-01-26T15:10:40;98618.69;;;-0.08;100.00
59106;BME280;44891;50.204;8.132;2023-01-26T15:14:47;98620.63;;;-0.02;100.00
59106;BME280;44891;50.204;8.132;2023-01-26T15:18:57;98619.66;;;-0.09;100.00
59106;BME280;44891;50.204;8.132;2023-01-26T15:23:00;98610.63;;;-0.13;100.00
59106;BME280;44891;50.204;8.132;2023-01-26T15:27:05;98616.94;;;0.01;100.00
59106;BME280;44891;50.204;8.132;2023-01-26T15:31:07;98621.44;;;-0.09;100.00
59106;BME280;44891;50.204;8.132;2023-01-26T15:35:18;98628.38;;;-0.18;100.00
59106;BME280;44891;50.204;8.132;2023-01-26T15:39:20;98626.25;;;-0.14;100.00
59106;BME280;44891;50.204;8.132;2023-01-26T15:43:22;98630.59;;;-0.15;100.00
59106;BME280;44891;50.204;8.132;2023-01-26T15:47:24;98627.72;;;-0.12;100.00
59106;BME280;44891;50.204;8.132;2023-01-26T15:51:27;98623.19;;;-0.10;100.00
59106;BME280;44891;50.204;8.132;2023-01-26T15:55:30;98628.19;;;-0.08;100.00
59106;BME280;44891;50.204;8.132;2023-01-26T15:59:32;98621.94;;;-0.06;100.00
59106;BME280;44891;50.204;8.132;2023-01-26T16:03:34;98631.28;;;-0.05;100.00
59106;BME280;44891;50.204;8.132;2023-01-26T16:07:37;98628.69;;;-0.05;100.00
59106;BME280;44891;50.204;8.132;2023-01-26T16:11:41;98629.00;;;-0.16;100.00
59106;BME280;44891;50.204;8.132;2023-01-26T16:15:45;98637.25;;;-0.12;100.00
59106;BME280;44891;50.204;8.132;2023-01-26T16:19:47;98634.66;;;-0.12;100.00
59106;BME280;44891;50.204;8.132;2023-01-26T16:23:51;98634.84;;;-0.06;100.00
59106;BME280;44891;50.204;8.132;2023-01-26T16:27:53;98638.69;;;-0.10;100.00
59106;BME280;44891;50.204;8.132;2023-01-26T16:31:55;98633.41;;;0.00;100.00
59106;BME280;44891;50.204;8.132;2023-01-26T16:35:57;98632.25;;;0.03;100.00
59106;BME280;44891;50.204;8.132;2023-01-26T16:40:00;98632.09;;;-0.04;100.00
59106;BME280;44891;50.204;8.132;2023-01-26T16:44:07;98627.09;;;-0.06;100.00
59106;BME280;44891;50.204;8.132;2023-01-26T16:48:12;98630.94;;;-0.02;100.00
59106;BME280;44891;50.204;8.132;2023-01-26T16:52:14;98629.81;;;-0.07;100.00
59106;BME280;44891;50.204;8.132;2023-01-26T16:56:18;98648.22;;;-0.10;100.00
59106;BME280;44891;50.204;8.132;2023-01-26T17:00:20;98639.31;;;-0.08;100.00
59106;BME280;44891;50.204;8.132;2023-01-26T17:04:22;98630.16;;;-0.02;100.00
59106;BME280;44891;50.204;8.132;2023-01-26T17:08:24;98627.09;;;0.03;100.00
59106;BME280;44891;50.204;8.132;2023-01-26T17:12:27;98624.34;;;0.04;100.00
59106;BME280;44891;50.204;8.132;2023-01-26T17:16:29;98623.53;;;0.04;100.00
59106;BME280;44891;50.204;8.132;2023-01-26T17:20:32;98629.16;;;-0.01;100.00
59106;BME280;44891;50.204;8.132;2023-01-26T17:24:34;98619.00;;;-0.03;100.00
59106;BME280;44891;50.204;8.132;2023-01-26T17:28:37;98618.72;;;0.01;100.00
59106;BME280;44891;50.204;8.132;2023-01-26T17:32:40;98612.41;;;0.03;100.00
59106;BME280;44891;50.204;8.132;2023-01-26T17:36:42;98611.44;;;0.12;100.00
59106;BME280;44891;50.204;8.132;2023-01-26T17:40:44;98618.53;;;0.10;100.00
59106;BME280;44891;50.204;8.132;2023-01-26T17:44:47;98618.53;;;0.02;100.00
59106;BME280;44891;50.204;8.132;2023-01-26T17:48:49;98615.78;;;0.04;100.00
59106;BME280;44891;50.204;8.132;2023-01-26T17:52:51;98625.66;;;0.08;100.00
59106;BME280;44891;50.204;8.132;2023-01-26T17:56:53;98617.22;;;0.06;100.00
59106;BME280;44891;50.204;8.132;2023-01-26T18:00:56;98623.41;;;0.13;100.00
59106;BME280;44891;50.204;8.132;2023-01-26T18:04:58;98624.50;;;0.11;100.00
59106;BME280;44891;50.204;8.132;2023-01-26T18:09:00;98631.28;;;0.04;100.00
59106;BME280;44891;50.204;8.132;2023-01-26T18:13:02;98628.38;;;-0.02;100.00
59106;BME280;44891;50.204;8.132;2023-01-26T18:17:06;98624.19;;;-0.03;100.00
59106;BME280;44891;50.204;8.132;2023-01-26T18:21:11;98629.03;;;0.01;100.00
59106;BME280;44891;50.204;8.132;2023-01-26T18:25:14;98634.38;;;0.07;100.00
59106;BME280;44891;50.204;8.132;2023-01-26T18:29:17;98635.97;;;0.00;100.00
59106;BME280;44891;50.204;8.132;2023-01-26T18:33:20;98645.47;;;-0.01;100.00
59106;BME280;44891;50.204;8.132;2023-01-26T18:37:22;98636.94;;;0.07;100.00
59106;BME280;44891;50.204;8.132;2023-01-26T18:41:24;98636.63;;;0.02;100.00
59106;BME280;44891;50.204;8.132;2023-01-26T18:45:26;98651.94;;;-0.05;100.00
59106;BME280;44891;50.204;8.132;2023-01-26T18:49:29;98654.53;;;0.04;100.00
59106;BME280;44891;50.204;8.132;2023-01-26T18:53:32;98641.59;;;-0.13;100.00
59106;BME280;44891;50.204;8.132;2023-01-26T18:57:33;98644.19;;;-0.13;100.00
59106;BME280;44891;50.204;8.132;2023-01-26T19:01:35;98645.81;;;0.05;100.00
59106;BME280;44891;50.204;8.132;2023-01-26T19:05:39;98645.16;;;0.03;100.00
59106;BME280;44891;50.204;8.132;2023-01-26T19:09:41;98650.63;;;-0.01;100.00
59106;BME280;44891;50.204;8.132;2023-01-26T19:13:44;98646.13;;;0.02;100.00
59106;BME280;44891;50.204;8.132;2023-01-26T19:17:48;98649.06;;;0.07;100.00
59106;BME280;44891;50.204;8.132;2023-01-26T19:21:51;98647.09;;;0.09;100.00
59106;BME280;44891;50.204;8.132;2023-01-26T19:25:53;98641.31;;;0.15;100.00
59106;BME280;44891;50.204;8.132;2023-01-26T19:29:55;98645.97;;;0.11;100.00
59106;BME280;44891;50.204;8.132;2023-01-26T19:33:58;98641.78;;;0.18;100.00
59106;BME280;44891;50.204;8.132;2023-01-26T19:38:01;98646.47;;;0.15;100.00
59106;BME280;44891;50.204;8.132;2023-01-26T19:42:03;98650.19;;;0.20;100.00
59106;BME280;44891;50.204;8.132;2023-01-26T19:46:05;98645.50;;;0.16;100.00
59106;BME280;44891;50.204;8.132;2023-01-26T19:50:11;98640.16;;;0.17;100.00
59106;BME280;44891;50.204;8.132;2023-01-26T19:54:14;98648.41;;;0.21;100.00
59106;BME280;44891;50.204;8.132;2023-01-26T19:58:16;98650.50;;;0.25;100.00
59106;BME280;44891;50.204;8.132;2023-01-26T20:02:18;98644.84;;;0.30;100.00
59106;BME280;44891;50.204;8.132;2023-01-26T20:06:21;98641.00;;;0.34;100.00
59106;BME280;44891;50.204;8.132;2023-01-26T20:10:24;98640.19;;;0.34;100.00
59106;BME280;44891;50.204;8.132;2023-01-26T20:14:26;98635.97;;;0.33;100.00
59106;BME280;44891;50.204;8.132;2023-01-26T20:18:28;98634.84;;;0.35;100.00
59106;BME280;44891;50.204;8.132;2023-01-26T20:22:30;98636.47;;;0.36;100.00
59106;BME280;44891;50.204;8.132;2023-01-26T20:26:34;98631.91;;;0.38;100.00
59106;BME280;44891;50.204;8.132;2023-01-26T20:30:36;98630.31;;;0.37;100.00
59106;BME280;44891;50.204;8.132;2023-01-26T20:34:38;98629.34;;;0.38;100.00
59106;BME280;44891;50.204;8.132;2023-01-26T20:38:40;98627.72;;;0.37;100.00
59106;BME280;44891;50.204;8.132;2023-01-26T20:42:44;98625.13;;;0.45;100.00
59106;BME280;44891;50.204;8.132;2023-01-26T20:46:46;98619.97;;;0.45;100.00
59106;BME280;44891;50.204;8.132;2023-01-26T20:50:47;98617.38;;;0.45;100.00
59106;BME280;44891;50.204;8.132;2023-01-26T20:54:49;98622.56;;;0.37;100.00
59106;BME280;44891;50.204;8.132;2023-01-26T20:58:56;98619.19;;;0.37;100.00
59106;BME280;44891;50.204;8.132;2023-01-26T21:02:58;98622.41;;;0.39;100.00
59106;BME280;44891;50.204;8.132;2023-01-26T21:06:59;98623.06;;;0.41;100.00
59106;BME280;44891;50.204;8.132;2023-01-26T21:11:01;98622.56;;;0.37;100.00
59106;BME280;44891;50.204;8.132;2023-01-26T21:15:05;98617.72;;;0.42;100.00
59106;BME280;44891;50.204;8.132;2023-01-26T21:19:07;98612.38;;;0.44;100.00
59106;BME280;44891;50.204;8.132;2023-01-26T21:23:09;98605.59;;;0.43;100.00
59106;BME280;44891;50.204;8.132;2023-01-26T21:27:12;98600.91;;;0.38;100.00
59106;BME280;44891;50.204;8.132;2023-01-26T21:31:15;98600.28;;;0.44;100.00
59106;BME280;44891;50.204;8.132;2023-01-26T21:35:18;98586.72;;;0.42;100.00
59106;BME280;44891;50.204;8.132;2023-01-26T21:39:20;98597.19;;;0.49;100.00
59106;BME280;44891;50.204;8.132;2023-01-26T21:43:21;98586.53;;;0.52;100.00